マナウス の空港の天気 - METARとTAF

エドワルド ゴメス国際空港(マナウス) ( SBEG / MAO ) - ブラジル アマゾナス州マナウス
飛行場実況気象(Metar)
観測時間02/01 05:00 AMT (02/01 09:00 UTC)
風向・風速東 3m/s
視程10km以上
天気現象
なし
気温24℃
湿度94%
気圧1011hPa
METARSBEG 010900Z 08006KT CAVOK 24/23 Q1011
過去の天気等 Google飛行場航空写真 Wunderground天気予報

過去48時間のMETAR

飛行場予報(TAF)
発表時間: 1/31 20:40 AMT (2/01 00:40 UTC)
予報対象時間: 1日2時 AMT ~ 2日2時 AMT
風向・風速東 4m/s
視程8000m
全天の4割程度の雲 雲底高度 520m
1日5時 AMT ~ 1日7時 AMT に徐々に
全天の4割程度の雲 雲底高度 300m
全天の8割程度の雲 雲底高度 520m
1日9時 AMT ~ 1日11時 AMT に徐々に
風向・風速東 5m/s
全天の4割程度の雲 雲底高度 520m
少しの塔状積雲 雲底高度 760m
1日13時 AMT ~ 1日19時 AMT に一時的に
風向・風速北東 6m/s
視程4000m
天気現象雷雨
全天の8割程度の雲 雲底高度 430m
少しの積乱雲 雲底高度 820m
1日19時 AMT ~ 1日21時 AMT に徐々に
風向・風速西 3m/s
少しの雲 雲底高度 460m
TAF SBEG 010040Z 0106/0206 10007KT 8000 SCT017 TN23/0108Z TX29/0119Z
BECMG 0109/0111 SCT010 BKN017
BECMG 0113/0115 09010KT SCT017 FEW025TCU
TEMPO 0117/0123 04012KT 4000 TSRA BKN014 FEW027CB
BECMG 0123/0201 26005KT FEW015 RMK PHN